Time;durP1;ratioP1;P1;durP2;ratioP2;P2;SDS_P1;SDS_P2;PMS_P1;PMS_P2;Temp;Humidity;BMP_temperature;BMP_pressure;BME280_temperature;BME280_humidity;BME280_pressure;Samples;Min_cycle;Max_cycle;Signal;HPM_P1;HPM_P2
2022/05/10 00:01:51;;;;;;;5.03;4.53;;;17.40;99.90;;;;;;7384297;19;20135;-79
2022/05/10 00:04:18;;;;;;;4.55;3.88;;;17.10;99.90;;;;;;7401203;19;20167;-79
2022/05/10 00:06:49;;;;;;;6.50;4.47;;;17.00;99.90;;;;;;7392651;19;20134;-80
2022/05/10 00:09:19;;;;;;;4.90;4.40;;;17.10;99.90;;;;;;7394913;19;20255;-75
2022/05/10 00:11:45;;;;;;;5.00;4.50;;;17.00;99.90;;;;;;7391975;19;20171;-79
2022/05/10 00:14:11;;;;;;;4.95;4.25;;;17.00;99.90;;;;;;7393324;19;20143;-80
2022/05/10 00:16:41;;;;;;;6.15;4.40;;;16.90;99.90;;;;;;7390590;19;20708;-81
2022/05/10 00:19:09;;;;;;;5.40;4.90;;;17.00;99.90;;;;;;7393780;19;20133;-80
2022/05/10 00:21:35;;;;;;;5.50;4.68;;;17.00;99.90;;;;;;7395014;19;20142;-76
2022/05/10 00:24:00;;;;;;;4.97;4.43;;;16.90;99.90;;;;;;7391034;19;20606;-80
2022/05/10 00:26:26;;;;;;;5.80;4.32;;;17.10;99.90;;;;;;7390835;19;20127;-75
2022/05/10 00:28:52;;;;;;;5.18;4.68;;;16.90;99.90;;;;;;7390976;19;20200;-76
2022/05/10 00:31:18;;;;;;;5.32;4.65;;;16.80;99.90;;;;;;7401135;19;20135;-81
2022/05/10 00:33:45;;;;;;;6.13;4.10;;;16.70;99.90;;;;;;7389466;19;20131;-76
2022/05/10 00:36:13;;;;;;;4.78;4.35;;;16.70;99.90;;;;;;7390207;19;20501;-77
2022/05/10 00:38:40;;;;;;;5.43;4.18;;;16.90;99.90;;;;;;7394210;19;20630;-77
2022/05/10 00:41:16;;;;;;;5.70;4.45;;;17.00;99.90;;;;;;7388121;19;20174;-76
2022/05/10 00:43:46;;;;;;;5.68;4.53;;;17.00;99.90;;;;;;7391643;19;20134;-79
2022/05/10 00:46:21;;;;;;;4.80;4.32;;;17.00;99.90;;;;;;7388251;19;20547;-80
2022/05/10 00:48:57;;;;;;;4.80;4.30;;;17.10;99.90;;;;;;7391555;19;20146;-76
2022/05/10 00:51:43;;;;;;;4.70;4.25;;;17.10;99.90;;;;;;7393955;19;20134;-81
2022/05/10 00:54:40;;;;;;;6.03;4.90;;;17.10;99.90;;;;;;7388461;19;20864;-80
2022/05/10 00:57:26;;;;;;;6.60;5.90;;;17.40;99.90;;;;;;7394640;19;20528;-80
2022/05/10 01:00:11;;;;;;;5.47;4.63;;;17.50;99.90;;;;;;7391783;19;20137;-75
2022/05/10 01:02:37;;;;;;;5.72;4.80;;;17.60;99.90;;;;;;7388172;19;20131;-81
2022/05/10 01:05:14;;;;;;;6.47;5.03;;;17.00;99.90;;;;;;7389024;19;20130;-77
2022/05/10 01:07:53;;;;;;;5.68;4.60;;;16.80;99.90;;;;;;7389294;19;20467;-75
2022/05/10 01:10:38;;;;;;;4.90;4.45;;;16.70;99.90;;;;;;7390107;19;20134;-79
2022/05/10 01:13:25;;;;;;;7.60;4.63;;;16.60;99.90;;;;;;7391987;19;20139;-81
2022/05/10 01:16:11;;;;;;;5.30;4.80;;;16.70;99.90;;;;;;7388642;19;20158;-76
2022/05/10 01:18:38;;;;;;;7.13;4.78;;;16.60;99.90;;;;;;7392116;19;20131;-79
2022/05/10 01:21:23;;;;;;;5.28;4.75;;;16.10;99.90;;;;;;7398530;19;20155;-79
2022/05/10 01:24:07;;;;;;;6.35;5.03;;;16.30;99.90;;;;;;7399019;19;20611;-76
2022/05/10 01:26:42;;;;;;;5.10;4.60;;;16.20;99.90;;;;;;7386892;19;20195;-79
2022/05/10 01:29:14;;;;;;;5.88;5.20;;;16.30;99.90;;;;;;7388654;19;20138;-76
2022/05/10 01:31:46;;;;;;;6.63;5.60;;;16.30;99.90;;;;;;7391513;19;20142;-79
2022/05/10 01:34:19;;;;;;;5.78;4.93;;;16.60;99.90;;;;;;7388729;19;20468;-79
2022/05/10 01:36:59;;;;;;;6.63;5.40;;;16.80;99.90;;;;;;7386759;19;20142;-76
2022/05/10 01:39:30;;;;;;;5.80;5.20;;;16.60;99.90;;;;;;7387474;19;20231;-76
2022/05/10 01:42:15;;;;;;;6.85;5.50;;;16.40;99.90;;;;;;7384612;19;20151;-79
2022/05/10 01:44:47;;;;;;;9.75;5.75;;;16.50;99.90;;;;;;7398574;19;20127;-76
2022/05/10 01:47:31;;;;;;;7.30;5.22;;;16.00;99.90;;;;;;7385508;19;20135;-75
2022/05/10 01:50:05;;;;;;;7.30;5.15;;;16.20;99.90;;;;;;7388808;19;20164;-75
2022/05/10 01:53:08;;;;;;;7.65;6.05;;;16.30;99.90;;;;;;7388434;19;20279;-79
2022/05/10 01:55:41;;;;;;;8.13;5.70;;;16.20;99.90;;;;;;7391812;19;21010;-79
2022/05/10 01:58:14;;;;;;;6.32;5.63;;;16.30;99.90;;;;;;7388928;19;20703;-76
2022/05/10 02:00:44;;;;;;;7.25;5.53;;;16.30;99.90;;;;;;7389956;19;20507;-79
2022/05/10 02:03:09;;;;;;;7.25;5.20;;;16.10;99.90;;;;;;7385987;19;20130;-77
2022/05/10 02:06:13;;;;;;;6.75;5.30;;;16.00;99.90;;;;;;7389519;19;20466;-76
2022/05/10 02:09:04;;;;;;;7.25;5.60;;;16.30;99.90;;;;;;7394102;19;20158;-76
2022/05/10 02:11:33;;;;;;;6.35;5.45;;;16.60;99.90;;;;;;7388175;19;20198;-80
2022/05/10 02:14:05;;;;;;;6.25;5.65;;;16.70;99.90;;;;;;7386180;19;20524;-76
2022/05/10 02:16:57;;;;;;;9.05;5.72;;;16.50;99.90;;;;;;7384965;19;20622;-79
2022/05/10 02:19:43;;;;;;;10.32;5.68;;;16.50;99.90;;;;;;7385019;19;20166;-76
2022/05/10 02:22:21;;;;;;;5.95;5.35;;;16.30;99.90;;;;;;7388415;19;20114;-75
2022/05/10 02:24:59;;;;;;;7.72;5.53;;;16.40;99.90;;;;;;7387100;19;20182;-79
2022/05/10 02:27:50;;;;;;;7.53;5.65;;;16.60;99.90;;;;;;7386230;19;20151;-75
2022/05/10 02:30:20;;;;;;;7.35;5.45;;;16.60;99.90;;;;;;7385819;19;20138;-79
2022/05/10 02:33:08;;;;;;;8.93;5.85;;;16.60;99.90;;;;;;7390342;19;20612;-79
2022/05/10 02:35:38;;;;;;;6.57;5.88;;;16.30;99.90;;;;;;7385222;19;20127;-79
2022/05/10 02:38:05;;;;;;;6.38;5.57;;;16.40;99.90;;;;;;7386189;19;20150;-79
2022/05/10 02:40:32;;;;;;;5.43;4.93;;;16.50;99.90;;;;;;7385097;19;20134;-76
2022/05/10 02:42:59;;;;;;;6.03;5.40;;;16.00;99.90;;;;;;7383377;19;20167;-75
2022/05/10 02:45:26;;;;;;;7.35;5.45;;;15.80;99.90;;;;;;7386258;19;20143;-79
2022/05/10 02:47:52;;;;;;;5.90;5.28;;;15.80;99.90;;;;;;7384238;19;20150;-76
2022/05/10 02:50:27;;;;;;;5.95;5.35;;;16.00;99.90;;;;;;7386527;19;20601;-76
2022/05/10 02:52:53;;;;;;;6.55;5.53;;;15.90;99.90;;;;;;7388896;19;20131;-75
2022/05/10 02:55:25;;;;;;;6.15;5.55;;;16.00;99.90;;;;;;7385599;19;20141;-76
2022/05/10 02:57:55;;;;;;;7.40;5.50;;;16.30;99.90;;;;;;7384340;19;20130;-75
2022/05/10 03:00:23;;;;;;;6.75;6.00;;;16.40;99.90;;;;;;7387365;19;20194;-76
2022/05/10 03:02:53;;;;;;;6.40;5.70;;;16.20;99.90;;;;;;7384195;19;20471;-79
2022/05/10 03:05:19;;;;;;;8.38;5.53;;;15.90;99.90;;;;;;7386447;19;20130;-79
2022/05/10 03:07:45;;;;;;;6.93;5.35;;;15.80;99.90;;;;;;7383583;19;20142;-76
2022/05/10 03:10:11;;;;;;;6.53;5.70;;;15.70;99.90;;;;;;7384545;19;20134;-76
2022/05/10 03:12:37;;;;;;;6.53;5.78;;;15.90;99.90;;;;;;7397902;19;20139;-76
2022/05/10 03:15:06;;;;;;;6.75;5.50;;;15.80;99.90;;;;;;7385976;19;20602;-75
2022/05/10 03:17:32;;;;;;;8.25;5.35;;;15.60;99.90;;;;;;7383855;19;20499;-75
2022/05/10 03:19:57;;;;;;;5.95;5.35;;;15.50;99.90;;;;;;7384579;19;20130;-75
2022/05/10 03:22:23;;;;;;;8.00;5.32;;;15.60;99.90;;;;;;7384172;19;20146;-80
2022/05/10 03:24:49;;;;;;;6.50;5.85;;;15.50;99.90;;;;;;7385579;19;20127;-80
2022/05/10 03:27:16;;;;;;;6.00;5.40;;;15.70;99.90;;;;;;7384269;19;20547;-79
2022/05/10 03:29:43;;;;;;;6.95;5.72;;;15.80;99.90;;;;;;7384232;19;20145;-75
2022/05/10 03:32:10;;;;;;;8.18;6.05;;;15.80;99.90;;;;;;7385773;19;20123;-79
2022/05/10 03:34:54;;;;;;;8.35;5.90;;;15.60;99.90;;;;;;7392551;19;20605;-75
2022/05/10 03:37:20;;;;;;;7.18;5.70;;;15.80;99.90;;;;;;7387878;19;20134;-80
2022/05/10 03:39:46;;;;;;;9.02;6.78;;;16.10;99.90;;;;;;7383695;19;20190;-76
2022/05/10 03:42:12;;;;;;;8.32;5.88;;;16.20;99.90;;;;;;7381538;19;20155;-76
2022/05/10 03:44:37;;;;;;;6.20;5.40;;;16.20;99.90;;;;;;7390059;19;20618;-77
2022/05/10 03:47:05;;;;;;;6.45;5.57;;;16.10;99.90;;;;;;7390026;19;20155;-76
2022/05/10 03:49:31;;;;;;;6.50;5.53;;;15.90;99.90;;;;;;7390318;19;20139;-78
2022/05/10 03:51:57;;;;;;;6.13;5.45;;;15.70;99.90;;;;;;7391008;19;20150;-80
2022/05/10 03:54:24;;;;;;;7.15;6.20;;;15.50;99.90;;;;;;7388043;19;20213;-76
2022/05/10 03:56:50;;;;;;;8.77;6.10;;;15.70;99.90;;;;;;7391441;19;20497;-75
2022/05/10 03:59:19;;;;;;;8.48;6.78;;;15.90;99.90;;;;;;7396673;19;20165;-76
2022/05/10 04:01:45;;;;;;;8.10;7.00;;;16.10;99.90;;;;;;7391197;19;20153;-75
2022/05/10 04:04:11;;;;;;;10.15;7.20;;;16.20;99.90;;;;;;7390217;19;20681;-75
2022/05/10 04:06:37;;;;;;;9.75;6.90;;;16.20;99.90;;;;;;7394310;19;20138;-75
2022/05/10 04:09:03;;;;;;;8.85;7.32;;;16.20;99.90;;;;;;7389472;19;20479;-80
2022/05/10 04:11:29;;;;;;;6.13;5.45;;;16.00;99.90;;;;;;7391652;19;20226;-76
2022/05/10 04:13:55;;;;;;;7.07;5.93;;;15.80;99.90;;;;;;7389159;19;20131;-76
2022/05/10 04:16:22;;;;;;;9.57;6.15;;;15.60;99.90;;;;;;7389542;19;20135;-78
2022/05/10 04:18:47;;;;;;;7.57;6.15;;;15.50;99.90;;;;;;7390574;19;20586;-75
2022/05/10 04:21:13;;;;;;;11.02;7.60;;;15.70;99.90;;;;;;7397288;19;20150;-76
2022/05/10 04:23:39;;;;;;;10.98;7.20;;;15.90;99.90;;;;;;7393551;19;20500;-78
2022/05/10 04:26:08;;;;;;;8.90;6.50;;;16.00;99.90;;;;;;7394245;19;20134;-80
2022/05/10 04:28:36;;;;;;;7.10;6.00;;;15.90;99.90;;;;;;7389877;19;20143;-77
2022/05/10 04:31:03;;;;;;;6.95;6.28;;;15.70;99.90;;;;;;7390277;19;20150;-79
2022/05/10 04:33:29;;;;;;;7.75;6.95;;;15.90;99.90;;;;;;7388364;19;20195;-79
2022/05/10 04:35:54;;;;;;;8.65;6.65;;;16.00;99.90;;;;;;7388458;19;20135;-76
2022/05/10 04:38:20;;;;;;;7.30;6.35;;;15.80;99.90;;;;;;7388833;19;20546;-76
2022/05/10 04:43:34;;;;;;;9.82;7.15;;;15.80;99.90;;;;;;7395597;19;20538;-76
2022/05/10 04:46:00;;;;;;;11.00;6.85;;;15.70;99.90;;;;;;7394237;19;20154;-79
2022/05/10 04:48:25;;;;;;;10.35;7.65;;;16.00;99.90;;;;;;7389229;19;20131;-76
2022/05/10 04:50:52;;;;;;;10.63;8.05;;;16.20;99.90;;;;;;7388734;19;20146;-80
2022/05/10 04:53:18;;;;;;;11.55;8.23;;;16.30;99.90;;;;;;7390440;19;20131;-80
2022/05/10 04:55:44;;;;;;;8.82;7.10;;;16.30;99.90;;;;;;7388967;19;20922;-76
2022/05/10 04:58:10;;;;;;;10.15;7.53;;;16.40;99.90;;;;;;7387788;19;20504;-76
2022/05/10 05:00:35;;;;;;;11.48;8.02;;;16.40;99.90;;;;;;7387934;19;20142;-75
2022/05/10 05:03:01;;;;;;;9.32;7.43;;;16.30;99.90;;;;;;7388538;19;20126;-80
2022/05/10 05:05:27;;;;;;;9.18;7.72;;;16.30;99.90;;;;;;7393804;19;20150;-75
2022/05/10 05:07:55;;;;;;;9.77;7.82;;;16.30;99.90;;;;;;7393426;19;20131;-76
2022/05/10 05:10:20;;;;;;;9.38;7.78;;;16.20;99.90;;;;;;7389289;19;20131;-74
2022/05/10 05:12:46;;;;;;;10.05;8.20;;;16.30;99.90;;;;;;7388621;19;20142;-79
2022/05/10 05:15:12;;;;;;;9.77;7.85;;;16.30;99.90;;;;;;7389902;19;20242;-81
2022/05/10 05:17:38;;;;;;;12.73;8.68;;;16.30;99.90;;;;;;7389049;19;20169;-78
2022/05/10 05:20:06;;;;;;;10.10;8.32;;;16.40;99.90;;;;;;7389440;19;20653;-76
2022/05/10 05:22:32;;;;;;;11.07;8.13;;;16.40;99.90;;;;;;7389271;19;20181;-80
2022/05/10 05:24:58;;;;;;;11.05;8.38;;;16.40;99.90;;;;;;7390355;19;20154;-75
2022/05/10 05:27:23;;;;;;;10.25;8.43;;;16.50;99.90;;;;;;7390536;19;20227;-75
2022/05/10 05:29:49;;;;;;;8.65;7.70;;;16.50;99.90;;;;;;7387958;19;20171;-82
2022/05/10 05:32:18;;;;;;;11.38;8.43;;;16.60;99.90;;;;;;7388703;19;20138;-79
2022/05/10 05:34:45;;;;;;;10.90;8.55;;;16.60;99.90;;;;;;7389824;19;20141;-74
2022/05/10 05:39:55;;;;;;;9.98;7.93;;;16.60;99.90;;;;;;7388344;19;20161;-76
2022/05/10 05:42:20;;;;;;;9.60;8.05;;;16.70;99.90;;;;;;7387620;19;20174;-76
2022/05/10 05:44:46;;;;;;;10.23;7.85;;;16.80;99.90;;;;;;7390521;19;20171;-75
2022/05/10 05:47:12;;;;;;;11.98;7.95;;;16.90;99.90;;;;;;7391692;19;20231;-74
2022/05/10 05:49:38;;;;;;;10.00;7.13;;;16.90;99.90;;;;;;7391383;19;20167;-77
2022/05/10 05:52:04;;;;;;;9.65;7.80;;;17.00;99.90;;;;;;7385284;19;20134;-78
2022/05/10 05:54:33;;;;;;;7.63;6.82;;;17.00;99.90;;;;;;7385699;19;20716;-80
2022/05/10 05:57:06;;;;;;;10.30;8.73;;;17.00;99.90;;;;;;7389524;19;20151;-77
2022/05/10 05:59:33;;;;;;;8.38;7.47;;;17.00;99.90;;;;;;7392536;19;20234;-79
2022/05/10 06:01:59;;;;;;;9.38;7.80;;;17.20;99.90;;;;;;7390961;19;20138;-78
2022/05/10 06:04:26;;;;;;;7.88;6.82;;;17.20;99.90;;;;;;7392963;19;20122;-78
2022/05/10 06:06:52;;;;;;;11.98;7.13;;;17.30;99.90;;;;;;7390082;19;20127;-80
2022/05/10 06:09:22;;;;;;;12.95;8.05;;;17.30;99.90;;;;;;7396285;19;20146;-76
2022/05/10 06:11:49;;;;;;;9.52;7.18;;;17.40;99.90;;;;;;7390189;19;20135;-75
2022/05/10 06:14:15;;;;;;;9.90;7.35;;;17.50;99.90;;;;;;7388988;19;20122;-78
2022/05/10 06:16:42;;;;;;;15.48;7.55;;;17.50;99.90;;;;;;7388962;19;20235;-75
2022/05/10 06:19:09;;;;;;;9.93;7.78;;;17.50;99.90;;;;;;7391562;19;20135;-80
2022/05/10 06:21:37;;;;;;;13.18;7.13;;;17.70;99.90;;;;;;7388359;19;20123;-75
2022/05/10 06:24:03;;;;;;;8.57;7.00;;;18.10;99.90;;;;;;7386432;19;20138;-81
2022/05/10 06:26:29;;;;;;;12.65;8.27;;;18.90;99.90;;;;;;7386560;19;20147;-76
2022/05/10 06:28:55;;;;;;;8.57;7.28;;;19.70;99.90;;;;;;7384371;19;20166;-76
2022/05/10 06:31:20;;;;;;;10.10;7.25;;;20.30;99.90;;;;;;7388821;19;20146;-82
2022/05/10 06:33:46;;;;;;;10.18;7.57;;;20.40;99.90;;;;;;7391375;19;20130;-82
2022/05/10 06:36:12;;;;;;;9.85;7.38;;;20.30;99.90;;;;;;7381941;19;20130;-83
2022/05/10 06:38:40;;;;;;;10.18;7.38;;;20.30;99.90;;;;;;7381933;19;20138;-77
2022/05/10 06:41:06;;;;;;;9.05;7.43;;;20.40;99.90;;;;;;7385526;19;20142;-76
2022/05/10 06:43:35;;;;;;;7.90;6.82;;;20.80;99.90;;;;;;7387631;19;20135;-82
2022/05/10 06:46:20;;;;;;;9.13;6.90;;;20.90;99.90;;;;;;7386596;19;20134;-76
2022/05/10 06:48:47;;;;;;;8.48;6.57;;;21.10;99.90;;;;;;7385056;19;20497;-81
2022/05/10 06:51:14;;;;;;;9.43;7.78;;;21.00;99.90;;;;;;7385366;19;20146;-76
2022/05/10 06:53:40;;;;;;;8.60;7.50;;;20.90;99.90;;;;;;7387822;19;20133;-81
2022/05/10 06:56:07;;;;;;;11.60;7.32;;;20.80;99.90;;;;;;7388644;19;20122;-76
2022/05/10 06:58:34;;;;;;;9.30;7.13;;;20.90;99.90;;;;;;7386055;19;20586;-75
2022/05/10 07:00:59;;;;;;;9.63;7.43;;;21.10;99.90;;;;;;7383095;19;20202;-75
2022/05/10 07:03:31;;;;;;;9.65;6.88;;;21.40;99.90;;;;;;7384387;19;20134;-82
2022/05/10 07:06:01;;;;;;;7.45;6.63;;;21.60;99.90;;;;;;7389168;19;20134;-83
2022/05/10 07:08:27;;;;;;;9.23;7.22;;;21.70;99.90;;;;;;7384268;19;20169;-76
2022/05/10 07:10:54;;;;;;;11.40;7.05;;;21.60;99.90;;;;;;7386005;19;20126;-81
2022/05/10 07:13:24;;;;;;;9.73;6.95;;;21.70;99.90;;;;;;7384466;19;20158;-76
2022/05/10 07:15:51;;;;;;;7.88;6.30;;;21.80;99.90;;;;;;7385908;19;20147;-76
2022/05/10 07:18:18;;;;;;;8.07;6.55;;;22.00;99.90;;;;;;7390039;19;20142;-77
2022/05/10 07:20:45;;;;;;;8.10;6.90;;;22.20;99.90;;;;;;7393619;19;20527;-80
2022/05/10 07:23:12;;;;;;;9.00;6.53;;;22.30;99.90;;;;;;7394906;19;20626;-81
2022/05/10 07:25:39;;;;;;;8.80;6.22;;;22.20;99.90;;;;;;7396427;19;20166;-77
2022/05/10 07:28:08;;;;;;;8.35;6.38;;;22.10;99.90;;;;;;7390848;19;20165;-80
2022/05/10 07:30:35;;;;;;;8.02;6.28;;;22.10;99.90;;;;;;7389367;19;20273;-76
2022/05/10 07:33:02;;;;;;;7.65;6.35;;;22.00;99.90;;;;;;7391911;19;20218;-80
2022/05/10 07:38:15;;;;;;;8.88;5.93;;;22.00;99.90;;;;;;7400982;19;20149;-77
2022/05/10 07:40:43;;;;;;;6.90;6.15;;;22.10;99.90;;;;;;7395816;19;20148;-79
2022/05/10 07:43:10;;;;;;;8.88;6.22;;;22.40;99.90;;;;;;7394636;19;20158;-80
2022/05/10 07:45:36;;;;;;;7.45;5.85;;;22.70;99.90;;;;;;7394646;19;20134;-77
2022/05/10 07:48:03;;;;;;;8.50;6.30;;;23.10;99.90;;;;;;7391869;19;20143;-77
2022/05/10 07:50:28;;;;;;;8.23;6.32;;;23.00;99.90;;;;;;7390531;19;20135;-76
2022/05/10 07:52:54;;;;;;;6.75;6.05;;;23.20;99.90;;;;;;7392248;19;20141;-76
2022/05/10 07:55:20;;;;;;;6.47;5.22;;;23.30;99.90;;;;;;7393126;19;20487;-80
2022/05/10 07:57:46;;;;;;;7.10;5.60;;;23.60;99.90;;;;;;7400246;19;20137;-81
2022/05/10 08:00:13;;;;;;;9.40;7.25;;;23.90;99.90;;;;;;7391105;19;20149;-77
2022/05/10 08:02:43;;;;;;;7.10;5.95;;;24.00;99.90;;;;;;7391045;19;20180;-79
2022/05/10 08:05:22;;;;;;;9.63;5.70;;;24.10;99.90;;;;;;7393640;19;20194;-77
2022/05/10 08:07:48;;;;;;;10.02;6.30;;;24.40;99.90;;;;;;7389516;19;20153;-77
2022/05/10 08:10:15;;;;;;;7.63;6.10;;;24.40;99.90;;;;;;7391626;19;20134;-80
2022/05/10 08:12:41;;;;;;;12.73;5.80;;;24.40;99.90;;;;;;7389706;19;20628;-76
2022/05/10 08:15:08;;;;;;;7.78;5.43;;;24.30;99.90;;;;;;7390453;19;20147;-80
2022/05/10 08:17:35;;;;;;;7.18;5.35;;;24.20;99.90;;;;;;7393669;19;20154;-79
2022/05/10 08:20:02;;;;;;;6.22;4.60;;;24.10;99.90;;;;;;7397479;19;20138;-81
2022/05/10 08:22:28;;;;;;;8.23;5.07;;;24.20;99.90;;;;;;7392091;19;20161;-80
2022/05/10 08:24:54;;;;;;;5.10;4.47;;;24.30;99.90;;;;;;7391946;19;20669;-76
2022/05/10 08:27:20;;;;;;;7.72;4.88;;;24.20;99.90;;;;;;7390491;19;20168;-76
2022/05/10 08:29:45;;;;;;;9.82;5.00;;;24.20;99.90;;;;;;7391132;19;20656;-77
2022/05/10 08:32:11;;;;;;;5.55;4.97;;;24.10;99.90;;;;;;7395753;19;20143;-81
2022/05/10 08:34:37;;;;;;;8.93;4.85;;;24.00;99.90;;;;;;7390114;19;20157;-75
2022/05/10 08:37:04;;;;;;;4.78;4.28;;;23.90;99.90;;;;;;7390677;19;20611;-77
2022/05/10 08:39:30;;;;;;;5.00;3.92;;;24.00;99.90;;;;;;7411025;19;20168;-77
2022/05/10 08:42:00;;;;;;;5.50;4.60;;;24.40;99.90;;;;;;7392629;19;20640;-77
2022/05/10 08:44:29;;;;;;;5.10;3.75;;;24.60;99.90;;;;;;7391193;19;20135;-80
2022/05/10 08:47:01;;;;;;;4.53;3.67;;;24.90;99.90;;;;;;7398097;19;20178;-83
2022/05/10 08:49:39;;;;;;;4.60;3.78;;;24.80;99.70;;;;;;7391646;19;20547;-75
2022/05/10 08:52:08;;;;;;;4.15;3.33;;;25.00;99.90;;;;;;7389055;19;20161;-81
2022/05/10 08:54:38;;;;;;;4.95;3.35;;;25.20;99.10;;;;;;7390224;19;20154;-80
2022/05/10 08:57:28;;;;;;;4.57;4.18;;;25.60;99.30;;;;;;7389268;19;20174;-82
2022/05/10 09:00:16;;;;;;;3.90;3.60;;;25.70;97.90;;;;;;7396108;19;20134;-75
2022/05/10 09:02:52;;;;;;;4.03;3.40;;;25.50;97.80;;;;;;7402253;19;20139;-77
2022/05/10 09:05:21;;;;;;;3.92;3.58;;;25.70;98.50;;;;;;7392391;19;20134;-76
2022/05/10 09:08:02;;;;;;;3.60;3.30;;;26.00;97.80;;;;;;7388868;19;20141;-75
2022/05/10 09:10:37;;;;;;;4.68;3.33;;;26.10;96.60;;;;;;7388831;19;20142;-79
2022/05/10 09:13:16;;;;;;;3.80;3.38;;;26.10;97.00;;;;;;7388232;19;20169;-80
2022/05/10 09:16:01;;;;;;;5.47;3.42;;;26.20;96.70;;;;;;7389662;19;20133;-76
2022/05/10 09:18:48;;;;;;;3.92;3.38;;;26.00;96.00;;;;;;7390665;19;20629;-81
2022/05/10 09:21:16;;;;;;;5.05;3.40;;;25.90;96.40;;;;;;7388755;19;20262;-76
2022/05/10 09:24:01;;;;;;;4.30;3.60;;;25.80;96.80;;;;;;7391861;19;20138;-76
2022/05/10 09:26:40;;;;;;;7.03;4.68;;;25.30;96.40;;;;;;7396971;19;20205;-83
2022/05/10 09:29:24;;;;;;;5.68;3.67;;;25.00;96.90;;;;;;7388794;19;20142;-75
2022/05/10 09:34:49;;;;;;;3.92;3.38;;;25.20;96.40;;;;;;7387289;19;20135;-84
2022/05/10 09:37:28;;;;;;;3.20;2.90;;;25.20;93.70;;;;;;7392202;19;20131;-75
2022/05/10 09:40:09;;;;;;;4.88;3.35;;;25.10;94.50;;;;;;7388170;19;20130;-80
2022/05/10 09:42:36;;;;;;;3.45;3.15;;;25.20;95.40;;;;;;7386410;19;20689;-76
2022/05/10 09:45:13;;;;;;;3.47;2.95;;;25.20;94.60;;;;;;7391523;19;20134;-81
2022/05/10 09:47:39;;;;;;;3.38;3.08;;;25.40;94.90;;;;;;7386683;19;20135;-75
2022/05/10 09:50:15;;;;;;;5.80;3.65;;;25.20;94.60;;;;;;7388242;19;20161;-83
2022/05/10 09:52:41;;;;;;;6.05;3.92;;;24.90;95.50;;;;;;7387261;19;20219;-81
2022/05/10 09:55:12;;;;;;;7.53;6.30;;;24.90;96.60;;;;;;7384347;19;20149;-80
2022/05/10 09:57:40;;;;;;;7.05;5.28;;;24.90;96.20;;;;;;7385978;19;20147;-76
2022/05/10 10:00:12;;;;;;;5.00;4.15;;;24.90;96.10;;;;;;7388922;19;20134;-79
2022/05/10 10:02:39;;;;;;;6.38;3.63;;;24.90;96.40;;;;;;7387367;19;20141;-77
2022/05/10 10:05:33;;;;;;;3.80;3.35;;;25.10;96.20;;;;;;7393135;19;20538;-79
2022/05/10 10:07:59;;;;;;;4.15;3.10;;;25.30;95.30;;;;;;7390159;19;20146;-76
2022/05/10 10:10:37;;;;;;;5.70;5.15;;;25.50;94.80;;;;;;7388152;19;20130;-78
2022/05/10 10:13:27;;;;;;;6.82;4.50;;;25.70;94.60;;;;;;7386614;19;20671;-80
2022/05/10 10:15:54;;;;;;;5.88;4.60;;;25.80;94.90;;;;;;7388037;19;20613;-75
2022/05/10 10:18:51;;;;;;;3.40;3.10;;;25.80;94.00;;;;;;7386237;19;20122;-76
2022/05/10 10:21:34;;;;;;;5.75;3.65;;;25.50;93.30;;;;;;7388128;19;20135;-80
2022/05/10 10:24:01;;;;;;;6.70;3.10;;;25.20;93.70;;;;;;7393480;19;20139;-78
2022/05/10 10:26:42;;;;;;;4.00;3.00;;;25.10;94.30;;;;;;7385736;19;20145;-75
2022/05/10 10:29:16;;;;;;;6.13;5.18;;;25.00;93.90;;;;;;7389341;19;20154;-77
2022/05/10 10:32:06;;;;;;;4.43;4.03;;;24.90;95.00;;;;;;7390556;19;20129;-76
2022/05/10 10:34:54;;;;;;;5.75;3.50;;;25.10;94.80;;;;;;7386957;19;20140;-77
2022/05/10 10:37:32;;;;;;;3.47;3.17;;;25.40;93.90;;;;;;7384880;19;20147;-77
2022/05/10 10:40:16;;;;;;;3.80;3.42;;;25.30;93.70;;;;;;7386489;19;20146;-81
2022/05/10 10:42:59;;;;;;;3.03;2.72;;;25.30;93.80;;;;;;7383485;19;20174;-79
2022/05/10 10:45:37;;;;;;;2.72;2.45;;;25.30;93.50;;;;;;7387005;19;20198;-76
2022/05/10 10:48:48;;;;;;;3.53;2.80;;;25.40;93.60;;;;;;7387035;19;20140;-79
2022/05/10 10:51:15;;;;;;;4.40;2.90;;;25.40;92.50;;;;;;7386539;19;20146;-81
2022/05/10 10:53:44;;;;;;;3.88;2.80;;;25.60;92.50;;;;;;7387391;19;20169;-80
2022/05/10 10:56:43;;;;;;;4.13;3.15;;;25.50;92.20;;;;;;7387019;19;20130;-82
2022/05/10 10:59:12;;;;;;;3.20;2.90;;;25.80;92.70;;;;;;7386394;19;20574;-76
2022/05/10 11:02:04;;;;;;;2.92;2.72;;;25.80;92.60;;;;;;7387506;19;20139;-76
2022/05/10 11:04:44;;;;;;;3.30;3.00;;;25.70;93.10;;;;;;7387215;19;20131;-77
2022/05/10 11:07:36;;;;;;;4.53;2.30;;;25.80;91.90;;;;;;7386804;19;20130;-76
2022/05/10 11:10:25;;;;;;;4.43;3.22;;;25.60;91.70;;;;;;7385670;19;20158;-77
2022/05/10 11:13:06;;;;;;;3.72;3.10;;;25.50;92.20;;;;;;7385931;19;20219;-74
2022/05/10 11:16:12;;;;;;;4.25;2.95;;;25.40;92.80;;;;;;7387330;19;20123;-79
2022/05/10 11:19:00;;;;;;;3.42;2.63;;;25.40;91.50;;;;;;7393720;19;20574;-78
2022/05/10 11:22:00;;;;;;;4.55;4.10;;;25.40;91.70;;;;;;7389398;19;20138;-79
2022/05/10 11:24:45;;;;;;;3.25;2.85;;;25.50;92.20;;;;;;7388105;19;20170;-80
2022/05/10 11:27:41;;;;;;;3.00;2.67;;;25.60;91.30;;;;;;7384970;19;20149;-82
2022/05/10 11:30:13;;;;;;;3.10;2.80;;;25.70;91.80;;;;;;7385588;19;20153;-76
2022/05/10 11:32:54;;;;;;;3.22;2.92;;;25.80;91.50;;;;;;7385057;19;20298;-81
2022/05/10 11:35:20;;;;;;;3.25;2.95;;;25.80;91.50;;;;;;7386516;19;20134;-77
2022/05/10 11:37:58;;;;;;;3.55;2.92;;;25.90;91.70;;;;;;7385716;19;20131;-76
2022/05/10 11:40:58;;;;;;;4.18;2.53;;;25.90;90.40;;;;;;7388664;19;20578;-76
2022/05/10 11:43:46;;;;;;;3.72;2.40;;;25.80;91.20;;;;;;7393293;19;20127;-80
2022/05/10 11:46:41;;;;;;;2.58;2.38;;;25.80;90.50;;;;;;7385795;19;20142;-81
2022/05/10 11:49:33;;;;;;;2.90;2.47;;;25.70;90.60;;;;;;7387720;19;20137;-80
2022/05/10 11:52:23;;;;;;;2.72;2.40;;;25.80;91.30;;;;;;7388606;19;20146;-80
2022/05/10 11:55:18;;;;;;;2.55;2.35;;;25.70;90.80;;;;;;7383572;19;20504;-78
2022/05/10 11:57:44;;;;;;;4.05;2.35;;;25.90;90.60;;;;;;7386191;19;20131;-76
2022/05/10 12:00:32;;;;;;;2.72;2.40;;;25.80;91.00;;;;;;7386473;19;20159;-80
2022/05/10 12:02:59;;;;;;;3.75;2.33;;;25.70;91.20;;;;;;7385237;19;20134;-76
2022/05/10 12:05:35;;;;;;;2.78;2.53;;;25.70;90.30;;;;;;7398196;19;20130;-79
2022/05/10 12:08:19;;;;;;;4.20;2.55;;;25.70;91.10;;;;;;7395895;19;20134;-77
2022/05/10 12:10:46;;;;;;;3.20;2.90;;;25.70;91.20;;;;;;7391865;19;20581;-76
2022/05/10 12:22:46;;;;;;;3.20;2.90;;;25.30;91.40;;;;;;7395349;19;20151;-79
2022/05/10 12:25:44;;;;;;;4.45;3.30;;;25.30;90.80;;;;;;7394598;19;20135;-76
2022/05/10 12:28:30;;;;;;;2.92;2.20;;;25.30;90.70;;;;;;7391458;19;20174;-79
2022/05/10 12:30:57;;;;;;;3.03;2.70;;;25.30;90.70;;;;;;7397842;19;20139;-76
2022/05/10 12:33:37;;;;;;;2.55;2.30;;;25.20;91.00;;;;;;7393695;19;20646;-80
2022/05/10 12:36:07;;;;;;;2.53;2.33;;;25.20;91.00;;;;;;7391283;19;20573;-79
2022/05/10 12:38:44;;;;;;;3.15;2.30;;;25.20;90.90;;;;;;7392291;19;20176;-79
2022/05/10 12:41:39;;;;;;;3.13;2.20;;;25.10;89.90;;;;;;7391256;19;20144;-76
2022/05/10 12:44:29;;;;;;;3.08;2.65;;;25.20;89.70;;;;;;7393564;19;20150;-80
2022/05/10 12:47:16;;;;;;;4.03;3.47;;;25.20;90.60;;;;;;7391993;19;20130;-76
2022/05/10 12:49:56;;;;;;;3.00;2.67;;;25.40;89.60;;;;;;7389040;19;20123;-74
2022/05/10 12:52:39;;;;;;;5.35;2.63;;;25.30;89.30;;;;;;7394315;19;20147;-78
2022/05/10 12:55:09;;;;;;;3.83;2.83;;;25.30;88.40;;;;;;7395977;19;20126;-79
2022/05/10 12:57:43;;;;;;;2.80;2.60;;;25.50;88.80;;;;;;7389659;19;20248;-76
2022/05/10 13:00:24;;;;;;;2.97;2.33;;;25.50;88.70;;;;;;7393462;19;20138;-80
2022/05/10 13:03:05;;;;;;;2.40;2.03;;;25.50;88.40;;;;;;7391189;19;20142;-79
2022/05/10 13:05:58;;;;;;;1.90;1.80;;;25.50;87.90;;;;;;7394317;19;20154;-81
2022/05/10 13:08:55;;;;;;;3.10;2.10;;;25.40;87.80;;;;;;7389970;19;20630;-76
2022/05/10 13:11:25;;;;;;;3.05;2.75;;;25.50;89.00;;;;;;7391395;19;20546;-76
2022/05/10 13:13:55;;;;;;;3.30;2.25;;;25.60;89.10;;;;;;7391369;19;20154;-81
2022/05/10 13:16:21;;;;;;;2.97;2.22;;;25.70;87.30;;;;;;7395038;19;20154;-80
2022/05/10 13:18:53;;;;;;;2.55;2.35;;;25.60;87.60;;;;;;7399901;19;20217;-80
2022/05/10 13:21:28;;;;;;;3.63;2.83;;;25.50;88.00;;;;;;7395932;19;20386;-80
2022/05/10 13:23:58;;;;;;;2.60;2.40;;;25.50;88.30;;;;;;7394449;19;20122;-76
2022/05/10 13:26:24;;;;;;;2.88;2.55;;;25.60;87.60;;;;;;7394253;19;20147;-81
2022/05/10 13:28:58;;;;;;;3.60;3.10;;;25.50;89.20;;;;;;7391770;19;20491;-76
2022/05/10 13:31:31;;;;;;;3.92;2.80;;;25.50;88.00;;;;;;7392037;19;20126;-80
2022/05/10 13:34:17;;;;;;;3.03;2.60;;;25.50;87.80;;;;;;7395470;19;20134;-76
2022/05/10 13:36:49;;;;;;;2.72;2.35;;;25.50;87.10;;;;;;7400765;19;20122;-76